createdAt,value
2018-10-17T00:03:19.262Z,15.20
2018-10-17T00:05:52.596Z,15.30
2018-10-17T00:08:23.483Z,15.20
2018-10-17T00:10:53.167Z,15.00
2018-10-17T00:13:22.577Z,14.90
2018-10-17T00:15:52.731Z,14.80
2018-10-17T00:18:22.585Z,14.70
2018-10-17T00:20:52.103Z,14.70
2018-10-17T00:23:21.980Z,14.70
2018-10-17T00:25:52.598Z,14.60
2018-10-17T00:30:53.485Z,14.50
2018-10-17T00:33:23.212Z,14.40
2018-10-17T00:35:52.907Z,14.40
2018-10-17T00:38:27.339Z,14.40
2018-10-17T00:40:56.833Z,14.40
2018-10-17T00:45:59.051Z,14.20
2018-10-17T00:48:28.566Z,14.10
2018-10-17T00:50:58.040Z,14.00
2018-10-17T00:53:27.621Z,13.90
2018-10-17T00:55:57.261Z,13.80
2018-10-17T01:00:57.467Z,13.70
2018-10-17T01:03:27.339Z,13.70
2018-10-17T01:06:00.064Z,13.80
2018-10-17T01:08:35.841Z,13.80
2018-10-17T01:11:11.811Z,13.80
2018-10-17T01:18:39.576Z,13.70
2018-10-17T01:21:08.987Z,13.70
2018-10-17T01:23:38.482Z,13.70
2018-10-17T01:26:07.908Z,13.70
2018-10-17T01:28:37.682Z,13.70
2018-10-17T01:31:07.336Z,13.70
2018-10-17T01:33:36.785Z,13.70
2018-10-17T01:36:06.508Z,13.60
2018-10-17T01:38:35.930Z,13.60
2018-10-17T01:41:05.734Z,13.60
2018-10-17T01:43:35.721Z,13.60
2018-10-17T01:46:05.241Z,13.50
2018-10-17T01:48:34.652Z,13.40
2018-10-17T01:51:04.115Z,13.30
2018-10-17T01:53:33.912Z,13.20
2018-10-17T01:56:03.377Z,13.20
2018-10-17T01:58:32.771Z,13.10
2018-10-17T02:01:02.968Z,13.10
2018-10-17T02:03:32.808Z,13.10
2018-10-17T02:06:02.824Z,13.10
2018-10-17T02:08:32.997Z,13.10
2018-10-17T02:11:02.574Z,13.20
2018-10-17T02:16:03.633Z,13.20
2018-10-17T02:18:33.530Z,13.20
2018-10-17T02:21:02.948Z,13.30
2018-10-17T02:23:32.392Z,13.30
2018-10-17T02:26:01.901Z,13.30
2018-10-17T02:28:31.752Z,13.30
2018-10-17T02:31:01.423Z,13.40
2018-10-17T02:33:30.891Z,13.40
2018-10-17T02:36:00.596Z,13.50
2018-10-17T02:38:30.178Z,13.50
2018-10-17T02:40:59.777Z,13.40
2018-10-17T02:43:29.686Z,13.50
2018-10-17T02:45:59.221Z,13.50
2018-10-17T02:48:28.687Z,13.50
2018-10-17T02:50:58.118Z,13.60
2018-10-17T02:53:27.715Z,13.60
2018-10-17T02:55:57.358Z,13.60
2018-10-17T02:58:27.316Z,13.60
2018-10-17T03:00:56.866Z,13.60
2018-10-17T03:03:26.435Z,13.70
2018-10-17T03:05:56.179Z,13.50
2018-10-17T03:08:26.529Z,13.90
2018-10-17T03:10:56.077Z,13.30
2018-10-17T03:13:26.456Z,13.20
2018-10-17T03:15:56.050Z,13.10
2018-10-17T03:20:54.397Z,13.00
2018-10-17T03:23:24.291Z,13.00
2018-10-17T03:25:53.774Z,13.00
2018-10-17T03:28:23.266Z,13.10
2018-10-17T03:33:22.447Z,13.20
2018-10-17T03:35:52.048Z,13.10
2018-10-17T03:38:21.518Z,13.00
2018-10-17T03:40:51.853Z,13.00
2018-10-17T03:48:20.506Z,13.00
2018-10-17T03:50:50.150Z,13.10
2018-10-17T03:53:19.721Z,13.20
2018-10-17T03:55:49.240Z,13.20
2018-10-17T03:58:19.316Z,13.20
2018-10-17T04:00:53.876Z,13.30
2018-10-17T04:03:23.466Z,13.40
2018-10-17T04:05:53.122Z,13.40
2018-10-17T04:08:23.059Z,13.40
2018-10-17T04:10:52.751Z,13.40
2018-10-17T04:13:22.615Z,13.40
2018-10-17T04:18:21.702Z,13.50
2018-10-17T04:20:51.320Z,13.60
2018-10-17T04:25:53.590Z,13.60
2018-10-17T04:28:23.135Z,13.60
2018-10-17T04:30:52.698Z,13.70
2018-10-17T04:33:22.392Z,13.70
2018-10-17T04:35:52.407Z,13.70
2018-10-17T04:38:22.276Z,13.70
2018-10-17T04:40:51.844Z,13.70
2018-10-17T04:43:21.435Z,13.70
2018-10-17T04:45:51.377Z,13.70
2018-10-17T04:48:20.981Z,13.70
2018-10-17T04:53:19.450Z,13.60
2018-10-17T04:55:49.036Z,13.60
2018-10-17T04:58:18.558Z,13.60
2018-10-17T05:00:48.507Z,13.60
2018-10-17T05:03:18.294Z,13.60
2018-10-17T05:05:48.417Z,13.70
2018-10-17T05:10:47.370Z,13.60
2018-10-17T05:15:46.043Z,13.60
2018-10-17T05:18:15.518Z,13.60
2018-10-17T05:20:45.011Z,13.60
2018-10-17T05:23:14.717Z,13.60
2018-10-17T05:28:24.028Z,13.70
2018-10-17T05:31:00.182Z,12.10
2018-10-17T05:33:36.411Z,13.50
2018-10-17T05:36:08.433Z,13.30
2018-10-17T05:41:21.480Z,13.10
2018-10-17T05:43:55.155Z,13.00
2018-10-17T05:46:36.441Z,13.00
2018-10-17T05:49:06.769Z,12.90
2018-10-17T05:51:36.354Z,13.00
2018-10-17T05:54:06.355Z,13.00
2018-10-17T05:56:35.926Z,13.10
2018-10-17T05:59:06.318Z,13.10
2018-10-17T06:04:06.024Z,13.10
2018-10-17T06:06:36.083Z,13.20
2018-10-17T06:09:07.942Z,13.20
2018-10-17T06:14:07.382Z,13.10
2018-10-17T06:16:37.117Z,13.20
2018-10-17T06:19:07.291Z,13.20
2018-10-17T06:21:38.266Z,13.20
2018-10-17T06:24:08.136Z,13.10
2018-10-17T06:26:38.015Z,13.20
2018-10-17T06:29:08.424Z,13.20
2018-10-17T06:31:38.226Z,13.20
2018-10-17T06:34:08.028Z,13.30
2018-10-17T06:36:37.566Z,13.30
2018-10-17T06:46:37.972Z,13.40
2018-10-17T06:49:10.398Z,13.40
2018-10-17T06:51:40.635Z,13.30
2018-10-17T06:54:14.192Z,13.40
2018-10-17T06:59:15.309Z,13.50
2018-10-17T07:01:45.604Z,13.60
2018-10-17T07:09:29.102Z,13.80
2018-10-17T07:14:42.393Z,13.90
2018-10-17T07:20:09.667Z,13.90
2018-10-17T07:25:38.156Z,14.10
2018-10-17T07:30:50.350Z,14.20
2018-10-17T07:38:23.660Z,14.40
2018-10-17T07:40:55.038Z,14.50
2018-10-17T07:51:14.061Z,15.20
2018-10-17T07:56:17.547Z,15.40
2018-10-17T07:58:48.010Z,15.50
2018-10-17T08:01:21.155Z,15.50
2018-10-17T08:06:29.624Z,15.70
2018-10-17T08:11:37.866Z,16.00
2018-10-17T08:14:11.715Z,16.10
2018-10-17T08:16:52.702Z,16.20
2018-10-17T08:19:31.849Z,16.20
2018-10-17T08:22:05.760Z,16.30
2018-10-17T08:24:36.083Z,16.30
2018-10-17T08:27:10.324Z,16.40
2018-10-17T08:29:42.994Z,16.50
2018-10-17T08:34:53.376Z,16.60
2018-10-17T08:40:02.493Z,16.60
2018-10-17T08:42:40.551Z,16.60
2018-10-17T08:47:43.864Z,16.80
2018-10-17T08:52:46.504Z,17.10
2018-10-17T08:55:18.816Z,17.30
2018-10-17T08:57:49.891Z,17.50
2018-10-17T09:02:56.753Z,17.80
2018-10-17T09:08:19.583Z,18.10
2018-10-17T09:10:56.157Z,18.30
2018-10-17T09:13:28.578Z,18.40
2018-10-17T09:16:00.106Z,18.50
2018-10-17T09:28:42.112Z,18.90
2018-10-17T09:33:41.366Z,18.90
2018-10-17T09:36:11.022Z,18.80
2018-10-17T09:38:43.874Z,18.80
2018-10-17T09:43:43.740Z,18.90
2018-10-17T09:53:43.453Z,19.00
2018-10-17T09:56:13.740Z,19.10
2018-10-17T09:58:43.582Z,19.10
2018-10-17T10:01:21.100Z,19.20
2018-10-17T10:03:50.721Z,19.20
2018-10-17T10:06:26.888Z,19.30
2018-10-17T10:09:03.560Z,19.30
2018-10-17T10:14:24.272Z,19.30
2018-10-17T10:16:56.022Z,19.30
2018-10-17T10:19:45.497Z,19.20
2018-10-17T10:22:28.659Z,19.20
2018-10-17T10:25:02.591Z,19.20
2018-10-17T10:27:34.810Z,19.30
2018-10-17T10:30:06.724Z,19.30
2018-10-17T10:35:10.067Z,19.30
2018-10-17T10:37:44.909Z,19.30
2018-10-17T10:40:18.058Z,19.30
2018-10-17T10:42:49.365Z,19.40
2018-10-17T10:45:30.437Z,19.50
2018-10-17T10:48:02.077Z,19.60
2018-10-17T10:50:33.965Z,19.70
2018-10-17T10:53:05.874Z,19.70
2018-10-17T10:58:19.046Z,19.70
2018-10-17T11:03:33.496Z,19.90
2018-10-17T11:06:09.196Z,20.00
2018-10-17T11:08:45.216Z,20.10
2018-10-17T11:13:57.853Z,20.00
2018-10-17T11:16:30.449Z,20.00
2018-10-17T11:21:33.650Z,20.20
2018-10-17T11:26:47.014Z,20.40
2018-10-17T11:29:19.206Z,20.50
2018-10-17T11:32:02.345Z,20.50
2018-10-17T11:37:24.853Z,20.40
2018-10-17T11:39:54.980Z,20.40
2018-10-17T11:42:25.715Z,20.30
2018-10-17T11:44:55.427Z,20.40
2018-10-17T11:47:25.695Z,20.50
2018-10-17T11:49:56.475Z,20.60
2018-10-17T11:52:29.459Z,20.80
2018-10-17T11:54:59.127Z,20.90
2018-10-17T11:57:31.373Z,20.90
2018-10-17T12:00:00.995Z,21.00
2018-10-17T12:10:02.743Z,21.30
2018-10-17T12:12:34.956Z,21.30
2018-10-17T12:15:20.760Z,21.30
2018-10-17T12:17:51.604Z,21.30
2018-10-17T12:20:21.687Z,21.40
2018-10-17T12:25:28.702Z,21.50
2018-10-17T12:30:34.719Z,21.40
2018-10-17T12:41:14.760Z,21.60
2018-10-17T12:46:14.340Z,21.50
2018-10-17T12:48:44.558Z,21.50
2018-10-17T12:51:18.460Z,21.40
2018-10-17T12:56:17.661Z,21.50
2018-10-17T12:58:47.902Z,21.40
2018-10-17T13:03:49.654Z,21.60
2018-10-17T13:06:29.208Z,21.50
2018-10-17T13:11:34.177Z,21.50
2018-10-17T13:16:33.195Z,21.50
2018-10-17T13:19:04.591Z,21.60
2018-10-17T13:21:34.624Z,21.70
2018-10-17T13:26:34.432Z,21.70
2018-10-17T13:29:10.488Z,21.70
2018-10-17T13:34:11.233Z,22.00
2018-10-17T13:41:41.174Z,21.80
2018-10-17T13:44:17.500Z,21.80
2018-10-17T13:46:47.737Z,21.80
2018-10-17T13:49:21.712Z,21.70
2018-10-17T13:51:52.535Z,21.70
2018-10-17T13:56:53.468Z,21.70
2018-10-17T13:59:23.497Z,21.70
2018-10-17T14:01:53.385Z,21.70
2018-10-17T14:04:23.769Z,21.70
2018-10-17T14:11:56.022Z,21.90
2018-10-17T14:14:41.164Z,21.90
2018-10-17T14:19:49.318Z,21.90
2018-10-17T14:24:49.110Z,21.90
2018-10-17T14:29:52.078Z,22.00
2018-10-17T14:32:50.541Z,22.00
2018-10-17T14:37:50.667Z,22.00
2018-10-17T14:40:20.638Z,21.90
2018-10-17T14:45:25.352Z,21.90
2018-10-17T14:47:57.969Z,21.80
2018-10-17T14:50:29.237Z,21.80
2018-10-17T14:53:00.487Z,21.80
2018-10-17T14:55:30.643Z,21.70
2018-10-17T14:58:00.830Z,21.70
2018-10-17T15:03:03.782Z,21.70
2018-10-17T15:05:33.755Z,21.70
2018-10-17T15:08:03.556Z,21.70
2018-10-17T15:13:03.101Z,21.60
2018-10-17T15:18:08.292Z,21.40
2018-10-17T15:23:10.319Z,21.30
2018-10-17T15:25:40.653Z,21.30
2018-10-17T15:28:12.989Z,21.20
2018-10-17T15:30:42.933Z,21.20
2018-10-17T15:33:16.227Z,21.20
2018-10-17T15:38:19.752Z,21.30
2018-10-17T15:40:49.625Z,21.10
2018-10-17T15:43:29.119Z,21.10
2018-10-17T15:48:41.672Z,20.90
2018-10-17T15:51:11.469Z,20.90
2018-10-17T15:53:42.369Z,20.80
2018-10-17T16:03:41.492Z,20.60
2018-10-17T16:06:11.432Z,20.60
2018-10-17T16:14:05.025Z,20.70
2018-10-17T16:16:43.640Z,20.80
2018-10-17T16:21:43.691Z,20.90
2018-10-17T16:24:14.310Z,21.00
2018-10-17T16:26:43.895Z,21.00
2018-10-17T16:29:14.001Z,20.90
2018-10-17T16:33:02.978Z,20.90
2018-10-17T16:35:32.720Z,20.90
2018-10-17T16:38:03.339Z,20.70
2018-10-17T16:40:33.097Z,22.50
2018-10-17T16:43:07.036Z,20.50
2018-10-17T16:45:58.174Z,20.30
2018-10-17T16:48:45.771Z,20.30
2018-10-17T16:51:32.492Z,20.20
2018-10-17T16:54:23.643Z,20.20
2018-10-17T17:05:15.058Z,19.70
2018-10-17T17:07:45.299Z,19.60
2018-10-17T17:10:21.481Z,19.60
2018-10-17T17:12:51.755Z,19.50
2018-10-17T17:17:57.852Z,19.30
2018-10-17T17:20:32.206Z,19.30
2018-10-17T17:23:03.212Z,19.20
2018-10-17T17:28:27.424Z,19.10
2018-10-17T17:33:39.275Z,18.90
2018-10-17T17:36:10.728Z,18.90
2018-10-17T17:41:10.209Z,18.80
2018-10-17T17:43:40.962Z,18.70
2018-10-17T17:46:14.119Z,18.60
2018-10-17T17:48:45.188Z,18.60
2018-10-17T17:53:47.162Z,18.40
2018-10-17T17:58:50.770Z,18.40
2018-10-17T18:06:34.816Z,18.30
2018-10-17T18:09:16.380Z,18.30
2018-10-17T18:17:05.481Z,18.20
2018-10-17T18:19:45.866Z,18.20
2018-10-17T18:22:17.579Z,18.30
2018-10-17T18:27:22.966Z,18.30
2018-10-17T18:30:00.408Z,18.20
2018-10-17T18:35:38.776Z,18.10
2018-10-17T18:40:58.643Z,18.10
2018-10-17T18:43:41.236Z,18.00
2018-10-17T18:46:23.264Z,18.00
2018-10-17T18:48:55.713Z,18.00
2018-10-17T18:51:36.584Z,18.00
2018-10-17T18:54:19.007Z,18.00
2018-10-17T19:10:21.336Z,18.00
2018-10-17T19:13:16.183Z,18.00
2018-10-17T19:19:05.473Z,18.00
2018-10-17T19:21:44.092Z,17.90
2018-10-17T19:26:57.348Z,17.90
2018-10-17T19:34:53.206Z,17.90
2018-10-17T19:37:36.993Z,18.00
2018-10-17T19:40:18.828Z,18.00
2018-10-17T19:45:59.988Z,18.00
2018-10-17T19:51:26.471Z,18.00
2018-10-17T19:54:12.743Z,18.00
2018-10-17T19:59:47.146Z,18.00
2018-10-17T20:05:07.208Z,18.00
2018-10-17T20:07:50.798Z,18.00
2018-10-17T20:10:34.371Z,18.00
2018-10-17T20:13:09.294Z,18.00
2018-10-17T20:15:51.334Z,18.00
2018-10-17T20:21:18.949Z,18.00
2018-10-17T20:23:56.449Z,18.00
2018-10-17T20:29:12.785Z,18.00
2018-10-17T20:34:24.370Z,17.80
2018-10-17T20:39:48.127Z,17.70
2018-10-17T20:42:28.477Z,17.70
2018-10-17T20:47:55.354Z,17.60
2018-10-17T20:50:52.957Z,17.50
2018-10-17T21:01:15.199Z,17.40
2018-10-17T21:04:05.459Z,17.40
2018-10-17T21:09:26.819Z,17.40
2018-10-17T21:12:04.599Z,17.40
2018-10-17T21:17:17.816Z,17.40
2018-10-17T21:25:11.384Z,17.30
2018-10-17T21:30:45.573Z,17.20
2018-10-17T21:33:25.446Z,17.20
2018-10-17T21:35:59.622Z,17.20
2018-10-17T21:38:37.840Z,17.00
2018-10-17T21:46:33.429Z,16.90
2018-10-17T21:49:25.013Z,16.90
2018-10-17T21:52:13.186Z,16.90
2018-10-17T21:54:54.475Z,16.80
2018-10-17T21:57:36.594Z,16.80
2018-10-17T22:05:35.490Z,16.70
2018-10-17T22:08:11.301Z,16.70
2018-10-17T22:10:49.487Z,16.70
2018-10-17T22:13:38.487Z,16.70
2018-10-17T22:16:31.719Z,16.60
2018-10-17T22:19:10.685Z,16.70
